Time;durP1;ratioP1;P1;durP2;ratioP2;P2;SDS_P1;SDS_P2;PMS_P1;PMS_P2;Temp;Humidity;BMP_temperature;BMP_pressure;BME280_temperature;BME280_humidity;BME280_pressure;Samples;Min_cycle;Max_cycle;Signal;HPM_P1;HPM_P2
2022/04/03 00:02:03;;;;;;;7.53;6.82;;;;;;;4.64;nan;98984.56;6016884;23;20110;-78
2022/04/03 00:04:28;;;;;;;7.47;6.72;;;;;;;4.71;nan;98988.38;6064336;23;20042;-79
2022/04/03 00:06:54;;;;;;;6.40;5.80;;;;;;;4.76;nan;98991.44;6056023;23;20026;-77
2022/04/03 00:09:20;;;;;;;7.65;6.88;;;;;;;4.80;nan;98992.84;6083512;23;20018;-77
2022/04/03 00:11:45;;;;;;;7.40;6.32;;;;;;;4.79;nan;99001.66;6083803;23;20042;-79
2022/04/03 00:14:11;;;;;;;7.32;6.63;;;;;;;4.72;nan;98997.84;6084052;23;20062;-79
2022/04/03 00:16:37;;;;;;;7.50;6.80;;;;;;;4.69;nan;98993.69;6083002;23;20007;-80
2022/04/03 00:19:03;;;;;;;7.95;6.72;;;;;;;4.62;nan;98997.75;6081760;23;20034;-78
2022/04/03 00:21:28;;;;;;;9.38;7.10;;;;;;;4.58;nan;98998.09;6065823;23;20475;-79
2022/04/03 00:23:55;;;;;;;8.05;7.35;;;;;;;4.46;nan;98999.88;6063821;23;20444;-79
2022/04/03 00:26:20;;;;;;;7.97;6.85;;;;;;;4.43;nan;99000.09;6039884;23;20026;-79
2022/04/03 00:28:46;;;;;;;8.73;6.45;;;;;;;4.36;nan;98999.72;6039224;23;20802;-79
2022/04/03 00:31:12;;;;;;;7.20;6.30;;;;;;;4.26;nan;99001.38;6086996;23;20015;-79
2022/04/03 00:33:38;;;;;;;8.07;7.28;;;;;;;4.17;nan;99004.72;6084692;23;20009;-78
2022/04/03 00:36:04;;;;;;;7.38;6.47;;;;;;;4.03;nan;98997.91;6153803;23;20006;-79
2022/04/03 00:38:30;;;;;;;7.82;6.60;;;;;;;3.89;nan;99005.13;6147554;23;20028;-78
2022/04/03 00:40:56;;;;;;;7.88;7.18;;;;;;;3.74;nan;99001.03;6153303;23;20402;-79
2022/04/03 00:43:22;;;;;;;7.75;6.78;;;;;;;3.68;nan;99010.13;6153421;23;20014;-78
2022/04/03 00:45:48;;;;;;;7.65;6.95;;;;;;;3.61;nan;99001.09;6151059;23;20005;-78
2022/04/03 00:48:14;;;;;;;8.13;7.32;;;;;;;3.58;nan;99002.16;6152779;23;20013;-78
2022/04/03 00:50:40;;;;;;;7.65;6.90;;;;;;;3.45;nan;98997.94;6126265;23;20021;-78
2022/04/03 00:53:05;;;;;;;7.13;6.53;;;;;;;3.36;nan;99002.03;6152564;23;20060;-79
2022/04/03 00:55:32;;;;;;;7.75;6.90;;;;;;;3.34;nan;99008.31;6126471;23;20009;-78
2022/04/03 01:00:42;;;;;;;7.93;7.13;;;;;;;3.26;nan;99011.47;6171246;23;20061;-78
2022/04/03 01:03:41;;;;;;;8.27;7.53;;;;;;;3.26;nan;99006.25;6157597;23;20016;-78
2022/04/03 01:10:19;;;;;;;8.15;7.35;;;;;;;3.43;nan;99008.47;6188281;23;20027;-78
2022/04/03 01:13:28;;;;;;;9.93;7.80;;;;;;;3.57;nan;99016.16;6062435;23;20035;-79
2022/04/03 01:19:58;;;;;;;8.55;7.82;;;;;;;3.82;nan;99014.34;6061246;23;20365;-79
2022/04/03 01:27:15;;;;;;;6.88;6.20;;;;;;;3.58;nan;99023.03;6000296;23;20026;-78
2022/04/03 01:29:49;;;;;;;8.10;7.28;;;;;;;3.51;nan;99024.41;6024016;23;20097;-78
2022/04/03 01:33:01;;;;;;;7.15;6.50;;;;;;;3.38;nan;99026.25;6061790;23;20114;-78
2022/04/03 01:35:35;;;;;;;7.63;6.93;;;;;;;3.14;nan;99031.44;6061951;23;20098;-79
2022/04/03 01:38:01;;;;;;;6.78;6.18;;;;;;;2.98;nan;99033.47;6062754;23;20115;-77
2022/04/03 01:40:26;;;;;;;7.10;6.50;;;;;;;2.92;nan;99033.06;6015031;23;20010;-78
2022/04/03 01:42:52;;;;;;;7.18;6.47;;;;;;;2.97;nan;99030.97;6038883;23;20093;-78
2022/04/03 01:45:19;;;;;;;7.78;7.07;;;;;;;3.03;nan;99030.53;6062370;23;20015;-79
2022/04/03 01:47:45;;;;;;;7.93;7.15;;;;;;;3.03;nan;99033.13;6061593;23;20019;-78
2022/04/03 01:50:10;;;;;;;8.55;7.82;;;;;;;3.03;nan;99038.34;6104225;23;20031;-78
2022/04/03 01:52:36;;;;;;;8.27;7.55;;;;;;;3.00;nan;99041.19;6151795;23;20020;-78
2022/04/03 01:55:02;;;;;;;9.85;7.53;;;;;;;3.00;nan;99042.03;6126662;23;20100;-79
2022/04/03 01:57:28;;;;;;;13.55;8.23;;;;;;;3.05;nan;99039.06;6151914;23;20002;-78
2022/04/03 01:59:54;;;;;;;9.10;7.20;;;;;;;3.07;nan;99039.78;6101740;23;20072;-78
2022/04/03 02:02:19;;;;;;;7.55;6.85;;;;;;;3.09;nan;99045.72;6125989;23;20014;-78
2022/04/03 02:04:45;;;;;;;7.45;6.75;;;;;;;3.12;nan;99040.31;6101607;23;20096;-78
2022/04/03 02:07:12;;;;;;;8.27;7.22;;;;;;;3.14;nan;99044.47;6126558;23;20017;-77
2022/04/03 02:09:38;;;;;;;8.43;7.60;;;;;;;3.17;nan;99049.47;6102053;23;20005;-78
2022/04/03 02:12:05;;;;;;;7.78;7.00;;;;;;;3.19;nan;99046.75;6101770;23;20089;-79
2022/04/03 02:14:31;;;;;;;7.32;6.63;;;;;;;3.18;nan;99045.91;6152054;23;20014;-79
2022/04/03 02:16:57;;;;;;;8.18;7.47;;;;;;;3.09;nan;99050.94;6101864;23;20096;-79
2022/04/03 02:19:23;;;;;;;7.82;6.80;;;;;;;2.97;nan;99046.59;6126261;23;20005;-80
2022/04/03 02:21:49;;;;;;;8.13;7.32;;;;;;;2.72;nan;99053.50;6127735;23;20013;-78
2022/04/03 02:24:17;;;;;;;10.13;7.90;;;;;;;2.58;nan;99053.63;6154196;23;20013;-78
2022/04/03 02:26:43;;;;;;;8.20;7.40;;;;;;;2.56;nan;99052.91;6154447;23;20021;-78
2022/04/03 02:29:09;;;;;;;8.32;7.53;;;;;;;2.53;nan;99058.31;6154793;23;20017;-80
2022/04/03 02:31:36;;;;;;;9.13;7.80;;;;;;;2.55;nan;99051.22;6152677;23;20001;-78
2022/04/03 02:34:04;;;;;;;7.93;6.82;;;;;;;2.57;nan;99053.72;6129088;23;20647;-79
2022/04/03 02:36:29;;;;;;;8.68;7.85;;;;;;;2.48;nan;99056.00;6131152;23;20014;-76
2022/04/03 02:38:55;;;;;;;8.50;7.70;;;;;;;2.34;nan;99048.31;6114325;23;20036;-78
2022/04/03 02:41:21;;;;;;;7.95;7.15;;;;;;;2.28;nan;99053.09;6137148;23;20010;-78
2022/04/03 02:43:46;;;;;;;8.90;7.32;;;;;;;2.22;nan;99058.72;6162231;23;20499;-79
2022/04/03 02:46:12;;;;;;;8.68;7.78;;;;;;;2.24;nan;99060.28;6167030;23;20013;-77
2022/04/03 02:48:38;;;;;;;8.38;7.57;;;;;;;2.32;nan;99067.56;6106610;23;20431;-79
2022/04/03 02:51:04;;;;;;;9.45;8.55;;;;;;;2.42;nan;99066.00;6130381;23;20387;-79
2022/04/03 02:53:29;;;;;;;10.60;8.43;;;;;;;2.54;nan;99067.78;6156285;23;20088;-77
2022/04/03 02:56:07;;;;;;;8.77;7.97;;;;;;;2.59;nan;99057.91;6130312;23;20356;-78
2022/04/03 02:58:40;;;;;;;8.48;7.68;;;;;;;2.63;nan;99064.56;6188782;23;20472;-80
2022/04/03 03:01:27;;;;;;;9.90;8.98;;;;;;;2.64;nan;99058.44;6214921;23;20017;-78
2022/04/03 03:04:37;;;;;;;9.82;8.30;;;;;;;2.69;nan;99066.75;6214552;23;20012;-79
2022/04/03 03:18:28;;;;;;;9.15;8.30;;;;;;;2.71;nan;99067.47;6207547;23;20064;-79
2022/04/03 03:32:46;;;;;;;8.73;7.70;;;;;;;2.66;nan;99059.13;6062719;23;20026;-78
2022/04/03 03:40:59;;;;;;;8.23;7.28;;;;;;;2.32;nan;99075.38;6182665;23;20047;-78
2022/04/03 03:43:25;;;;;;;8.27;7.53;;;;;;;2.25;nan;99079.31;6155862;23;20097;-78
2022/04/03 03:45:50;;;;;;;9.10;8.30;;;;;;;2.27;nan;99085.28;6182778;23;20378;-78
2022/04/03 03:48:16;;;;;;;9.77;8.50;;;;;;;2.21;nan;99090.88;6182588;23;20478;-78
2022/04/03 03:50:41;;;;;;;9.30;8.48;;;;;;;2.16;nan;99096.41;6183241;23;20086;-79
2022/04/03 03:53:07;;;;;;;8.30;7.50;;;;;;;2.14;nan;99100.03;6182792;23;20103;-78
2022/04/03 03:55:33;;;;;;;9.43;7.72;;;;;;;2.13;nan;99100.97;6156249;23;20493;-78
2022/04/03 03:57:59;;;;;;;9.00;8.18;;;;;;;2.12;nan;99101.91;6132293;23;20028;-77
2022/04/03 04:00:25;;;;;;;8.77;7.97;;;;;;;2.13;nan;99100.97;6131947;23;20009;-78
2022/04/03 04:02:50;;;;;;;8.43;7.72;;;;;;;2.10;nan;99112.44;6156245;23;20087;-81
2022/04/03 04:05:17;;;;;;;8.50;7.70;;;;;;;2.13;nan;99111.38;6183229;23;20059;-79
2022/04/03 04:07:45;;;;;;;9.05;8.15;;;;;;;2.11;nan;99126.28;6131880;23;20020;-79
2022/04/03 04:10:12;;;;;;;8.52;7.68;;;;;;;2.02;nan;99135.50;6156314;23;20063;-76
2022/04/03 04:12:39;;;;;;;7.68;6.95;;;;;;;1.95;nan;99136.81;6181967;23;20013;-78
2022/04/03 04:15:06;;;;;;;8.45;7.65;;;;;;;1.97;nan;99143.63;6156334;23;20068;-79
2022/04/03 04:17:36;;;;;;;8.20;7.32;;;;;;;1.89;nan;99145.84;6181598;23;20005;-77
2022/04/03 04:20:05;;;;;;;8.68;7.82;;;;;;;1.88;nan;99152.03;6182119;23;20437;-79
2022/04/03 04:22:31;;;;;;;8.85;7.95;;;;;;;1.88;nan;99154.63;6181623;23;20442;-79
2022/04/03 04:24:57;;;;;;;7.88;7.10;;;;;;;1.84;nan;99158.34;6181768;23;20013;-78
2022/04/03 04:27:22;;;;;;;13.07;7.82;;;;;;;1.65;nan;99155.22;6155408;23;20025;-78
2022/04/03 04:29:48;;;;;;;8.95;8.10;;;;;;;1.48;nan;99158.88;6181533;23;20009;-78
2022/04/03 04:32:13;;;;;;;8.93;8.18;;;;;;;1.32;nan;99165.13;6154980;23;20028;-77
2022/04/03 04:34:40;;;;;;;9.32;8.43;;;;;;;1.27;nan;99167.19;6182038;23;20012;-79
2022/04/03 04:37:06;;;;;;;9.25;8.35;;;;;;;1.20;nan;99172.75;6182297;23;20005;-78
2022/04/03 04:39:32;;;;;;;11.52;8.35;;;;;;;1.19;nan;99163.28;6136453;23;20338;-78
2022/04/03 04:41:58;;;;;;;9.55;8.55;;;;;;;1.27;nan;99173.22;6152116;23;20009;-79
2022/04/03 04:44:23;;;;;;;9.40;8.50;;;;;;;1.32;nan;99175.53;6125794;23;20388;-78
2022/04/03 04:46:49;;;;;;;10.73;8.43;;;;;;;1.37;nan;99178.66;6151461;23;20327;-78
2022/04/03 04:49:16;;;;;;;8.93;8.02;;;;;;;1.37;nan;99184.72;6151769;23;20339;-78
2022/04/03 04:51:43;;;;;;;10.82;8.93;;;;;;;1.35;nan;99180.56;6151613;23;20431;-79
2022/04/03 04:54:09;;;;;;;9.48;8.57;;;;;;;1.40;nan;99181.94;6151971;23;20013;-79
2022/04/03 04:56:35;;;;;;;10.68;9.40;;;;;;;1.49;nan;99188.31;6152274;23;20449;-78
2022/04/03 04:59:02;;;;;;;9.98;8.93;;;;;;;1.56;nan;99193.06;6152228;23;20005;-79
2022/04/03 05:01:28;;;;;;;9.82;8.82;;;;;;;1.64;nan;99200.38;6152474;23;20686;-78
2022/04/03 05:03:54;;;;;;;9.27;8.40;;;;;;;1.71;nan;99199.06;6126115;23;20032;-78
2022/04/03 05:06:22;;;;;;;10.15;9.15;;;;;;;1.81;nan;99204.53;6126146;23;20427;-79
2022/04/03 05:08:48;;;;;;;11.80;9.57;;;;;;;1.84;nan;99210.38;6077590;23;20347;-78
2022/04/03 05:11:14;;;;;;;10.20;9.05;;;;;;;1.87;nan;99210.19;6126041;23;20001;-78
2022/04/03 05:13:40;;;;;;;10.38;9.27;;;;;;;1.85;nan;99206.84;6152034;23;20017;-78
2022/04/03 05:16:05;;;;;;;10.10;9.05;;;;;;;1.87;nan;99210.19;6152347;23;20010;-79
2022/04/03 05:18:34;;;;;;;10.57;9.48;;;;;;;1.91;nan;99206.44;6151939;23;20367;-79
2022/04/03 05:21:00;;;;;;;11.63;9.30;;;;;;;1.95;nan;99210.53;6152575;23;20457;-78
2022/04/03 05:23:25;;;;;;;9.48;8.57;;;;;;;2.02;nan;99210.97;6152376;23;20136;-78
2022/04/03 05:25:51;;;;;;;10.05;9.15;;;;;;;2.11;nan;99202.59;6151509;23;20005;-78
2022/04/03 05:28:16;;;;;;;10.55;9.43;;;;;;;2.22;nan;99214.91;6151733;23;20021;-78
2022/04/03 05:30:43;;;;;;;10.35;9.45;;;;;;;2.34;nan;99221.94;6125768;23;20018;-78
2022/04/03 05:33:09;;;;;;;10.55;9.48;;;;;;;2.42;nan;99228.28;6152363;23;20453;-78
2022/04/03 05:35:35;;;;;;;8.55;7.85;;;;;;;2.43;nan;99235.19;6125525;23;20439;-78
2022/04/03 05:38:00;;;;;;;10.00;8.95;;;;;;;2.37;nan;99235.56;6151758;23;20021;-80
2022/04/03 05:40:26;;;;;;;10.98;9.20;;;;;;;2.24;nan;99242.50;6151490;23;20439;-79
2022/04/03 05:42:51;;;;;;;9.20;8.30;;;;;;;2.13;nan;99257.13;6151372;23;20452;-79
2022/04/03 05:45:17;;;;;;;10.80;8.68;;;;;;;2.11;nan;99240.78;6152094;23;20024;-79
2022/04/03 05:47:46;;;;;;;9.40;8.50;;;;;;;2.09;nan;99250.47;6151867;23;20009;-78
2022/04/03 05:50:14;;;;;;;9.82;8.82;;;;;;;2.04;nan;99249.00;6151022;23;20336;-78
2022/04/03 05:52:49;;;;;;;9.18;8.27;;;;;;;2.01;nan;99256.97;6152134;23;20006;-77
2022/04/03 05:55:17;;;;;;;8.70;7.85;;;;;;;2.08;nan;99264.41;6126109;23;20084;-78
2022/04/03 05:57:43;;;;;;;9.65;8.65;;;;;;;2.16;nan;99268.19;6153788;23;20414;-78
2022/04/03 06:00:13;;;;;;;10.40;9.50;;;;;;;2.24;nan;99265.94;6154326;23;20020;-78
2022/04/03 06:02:47;;;;;;;10.00;9.07;;;;;;;2.35;nan;99267.88;6154188;23;20020;-76
2022/04/03 06:05:14;;;;;;;9.23;8.30;;;;;;;2.41;nan;99272.69;6129592;23;20013;-77
2022/04/03 06:07:39;;;;;;;9.07;8.27;;;;;;;2.52;nan;99272.84;6154589;23;20027;-78
2022/04/03 06:10:05;;;;;;;9.75;8.75;;;;;;;2.59;nan;99276.72;6127982;23;20065;-78
2022/04/03 06:12:31;;;;;;;9.13;8.15;;;;;;;2.67;nan;99279.63;6127865;23;20052;-79
2022/04/03 06:14:56;;;;;;;10.93;8.68;;;;;;;2.77;nan;99283.31;6103439;23;20010;-79
2022/04/03 06:17:22;;;;;;;9.10;8.30;;;;;;;2.95;nan;99288.25;6153644;23;20012;-79
2022/04/03 06:19:49;;;;;;;9.35;7.90;;;;;;;3.09;nan;99288.16;6153621;23;20021;-79
2022/04/03 06:22:15;;;;;;;10.05;8.40;;;;;;;3.22;nan;99291.63;6154267;23;20368;-79
2022/04/03 06:24:40;;;;;;;9.77;8.63;;;;;;;3.35;nan;99297.69;6153704;23;20033;-77
2022/04/03 06:27:06;;;;;;;9.23;8.43;;;;;;;3.48;nan;99298.50;6153498;23;20063;-79
2022/04/03 06:29:31;;;;;;;8.98;8.05;;;;;;;3.65;nan;99300.00;6153934;23;20041;-78
2022/04/03 06:31:57;;;;;;;9.57;7.80;;;;;;;3.75;nan;99306.25;6153822;23;20434;-78
2022/04/03 06:34:23;;;;;;;9.23;8.30;;;;;;;3.80;nan;99303.31;6152416;23;20216;-79
2022/04/03 06:36:59;;;;;;;8.30;7.57;;;;;;;3.93;nan;99306.75;6117110;23;20030;-78
2022/04/03 06:39:31;;;;;;;9.45;7.80;;;;;;;4.04;nan;99305.06;6121350;23;20096;-76
2022/04/03 06:55:38;;;;;;;9.57;8.68;;;;;;;4.65;nan;99332.03;6213095;23;20070;-76
2022/04/03 07:09:00;;;;;;;10.13;8.07;;;;;;;5.08;nan;99342.78;6158999;23;20044;-77
2022/04/03 07:11:29;;;;;;;9.63;8.35;;;;;;;5.20;nan;99341.88;6132230;23;20335;-76
2022/04/03 07:13:55;;;;;;;8.50;7.75;;;;;;;5.38;nan;99349.28;6158756;23;20009;-79
2022/04/03 07:16:21;;;;;;;8.57;7.78;;;;;;;5.52;nan;99359.56;6106680;23;20331;-76
2022/04/03 07:18:50;;;;;;;9.07;8.20;;;;;;;5.52;nan;99362.19;6154060;23;20009;-79
2022/04/03 07:21:16;;;;;;;8.63;7.75;;;;;;;5.56;nan;99363.63;6155769;23;20014;-77
2022/04/03 07:23:43;;;;;;;10.10;7.53;;;;;;;5.65;nan;99371.63;6104248;23;20032;-76
2022/04/03 07:26:08;;;;;;;9.15;7.85;;;;;;;5.67;nan;99376.72;6129364;23;20701;-77
2022/04/03 07:28:34;;;;;;;8.60;7.90;;;;;;;5.74;nan;99370.09;6154923;23;20006;-76
2022/04/03 07:30:59;;;;;;;8.13;7.47;;;;;;;5.82;nan;99379.97;6156140;23;20017;-76
2022/04/03 07:33:26;;;;;;;8.75;7.85;;;;;;;5.93;nan;99380.84;6127521;23;20016;-78
2022/04/03 07:35:52;;;;;;;8.93;7.72;;;;;;;6.00;nan;99383.84;6151651;23;20014;-75
2022/04/03 07:38:19;;;;;;;9.43;8.52;;;;;;;6.12;nan;99388.97;6153099;23;20017;-77
2022/04/03 07:40:48;;;;;;;8.77;7.88;;;;;;;6.37;nan;99398.34;6129045;23;20024;-79
2022/04/03 07:43:16;;;;;;;8.95;8.10;;;;;;;6.61;nan;99395.59;6134376;23;20013;-79
2022/04/03 07:45:50;;;;;;;8.82;7.78;;;;;;;6.71;nan;99390.47;6112206;23;20017;-80
2022/04/03 07:48:22;;;;;;;8.65;7.88;;;;;;;6.79;nan;99398.53;6162575;23;20009;-78
2022/04/03 07:50:47;;;;;;;8.05;7.35;;;;;;;6.94;nan;99403.41;6163003;23;20036;-76
2022/04/03 07:53:13;;;;;;;9.35;8.55;;;;;;;7.08;nan;99414.56;6162768;23;20001;-79
2022/04/03 07:55:38;;;;;;;9.43;8.00;;;;;;;7.08;nan;99419.81;6173883;23;20024;-86
2022/04/03 07:58:06;;;;;;;8.68;7.82;;;;;;;7.13;nan;99417.66;6151145;23;20013;-85
2022/04/03 08:08:35;;;;;;;9.20;8.40;;;;;;;7.55;nan;99421.16;6069439;23;20089;-80
2022/04/03 08:11:01;;;;;;;12.15;9.23;;;;;;;7.57;nan;99432.38;6067987;23;20019;-82
2022/04/03 08:18:53;;;;;;;9.33;8.43;;;;;;;7.77;nan;99440.31;5947179;24;20492;-78
2022/04/03 08:28:34;;;;;;;10.45;9.38;;;;;;;8.27;nan;99453.59;5921355;24;20127;-80
2022/04/03 08:31:03;;;;;;;10.88;9.75;;;;;;;8.42;nan;99460.22;5920251;24;20110;-80
2022/04/03 08:33:28;;;;;;;10.88;9.90;;;;;;;8.58;nan;99467.59;5920726;24;20029;-81
2022/04/03 08:35:54;;;;;;;10.13;9.23;;;;;;;8.70;nan;99470.97;5900830;24;20044;-78
2022/04/03 08:38:19;;;;;;;12.27;10.60;;;;;;;8.82;nan;99469.91;5922542;24;20025;-77
2022/04/03 08:40:45;;;;;;;10.52;9.52;;;;;;;8.90;nan;99475.31;5900383;24;20359;-78
2022/04/03 08:43:11;;;;;;;11.00;10.00;;;;;;;9.06;nan;99477.47;5924030;24;20725;-78
2022/04/03 08:45:37;;;;;;;10.18;8.85;;;;;;;9.20;nan;99470.00;5923637;24;20401;-77
2022/04/03 08:48:02;;;;;;;9.90;8.98;;;;;;;9.44;nan;99480.97;5917213;24;20020;-79
2022/04/03 08:50:34;;;;;;;12.32;9.70;;;;;;;9.60;nan;99482.25;5918631;24;20021;-79
2022/04/03 08:53:02;;;;;;;10.32;9.07;;;;;;;9.56;nan;99480.84;5934878;23;20019;-78
2022/04/03 08:55:29;;;;;;;10.07;9.07;;;;;;;9.46;nan;99483.47;6047413;23;20018;-78
2022/04/03 08:57:55;;;;;;;10.07;9.13;;;;;;;9.44;nan;99483.63;6062145;23;20007;-79
2022/04/03 09:00:21;;;;;;;11.25;10.05;;;;;;;9.51;nan;99480.44;6084962;23;20017;-78
2022/04/03 09:02:47;;;;;;;10.00;9.10;;;;;;;9.54;nan;99491.53;6076266;23;20287;-78
2022/04/03 09:05:14;;;;;;;10.82;9.82;;;;;;;9.51;nan;99488.34;6090713;23;20010;-77
2022/04/03 09:07:40;;;;;;;10.55;9.52;;;;;;;9.58;nan;99494.72;6092918;23;20011;-78
2022/04/03 09:10:08;;;;;;;10.65;9.65;;;;;;;9.75;nan;99488.75;6115344;23;20037;-77
2022/04/03 09:12:45;;;;;;;10.55;9.60;;;;;;;9.89;nan;99488.34;6115524;23;20057;-78
2022/04/03 09:15:19;;;;;;;10.57;9.57;;;;;;;9.98;nan;99495.41;6090695;23;20424;-79
2022/04/03 09:17:49;;;;;;;11.10;9.98;;;;;;;9.98;nan;99492.75;6087710;23;20465;-77
2022/04/03 09:20:22;;;;;;;10.57;9.50;;;;;;;10.06;nan;99494.72;6090839;23;20019;-80
2022/04/03 09:22:59;;;;;;;10.00;9.07;;;;;;;10.11;nan;99501.22;6092248;23;20077;-79
2022/04/03 09:25:28;;;;;;;10.75;9.57;;;;;;;10.17;nan;99498.06;6092294;23;20021;-80
2022/04/03 09:27:56;;;;;;;10.68;9.57;;;;;;;10.20;nan;99500.38;6093670;23;20017;-81
2022/04/03 09:30:31;;;;;;;10.95;9.93;;;;;;;10.30;nan;99502.19;6092518;23;20010;-79
2022/04/03 09:33:04;;;;;;;9.75;8.85;;;;;;;10.32;nan;99501.06;6094823;23;20070;-81
2022/04/03 09:35:53;;;;;;;10.45;9.45;;;;;;;10.39;nan;99496.88;6094486;23;20011;-78
2022/04/03 09:38:19;;;;;;;9.35;8.45;;;;;;;10.41;nan;99507.31;6095873;23;20014;-81
2022/04/03 09:40:47;;;;;;;10.05;9.05;;;;;;;10.51;nan;99490.47;6070144;23;20348;-79
2022/04/03 09:43:23;;;;;;;10.73;9.68;;;;;;;10.62;nan;99498.19;6084023;23;20022;-81
2022/04/03 09:45:53;;;;;;;11.73;8.68;;;;;;;10.75;nan;99503.16;6108516;23;20021;-80
2022/04/03 09:48:34;;;;;;;11.10;8.85;;;;;;;10.79;nan;99493.97;6104575;23;20010;-82
2022/04/03 09:51:07;;;;;;;8.95;8.15;;;;;;;10.87;nan;99507.28;6071240;23;20061;-82
2022/04/03 09:53:49;;;;;;;8.82;8.00;;;;;;;10.85;nan;99501.31;6070849;23;20011;-82
2022/04/03 09:56:37;;;;;;;9.57;8.77;;;;;;;10.72;nan;99503.44;6071144;23;20011;-85
2022/04/03 09:59:06;;;;;;;8.95;8.10;;;;;;;10.80;nan;99503.56;6070985;23;20075;-82
2022/04/03 10:01:34;;;;;;;8.90;8.00;;;;;;;10.87;nan;99512.56;6071600;23;20045;-79
2022/04/03 10:04:01;;;;;;;8.50;7.65;;;;;;;10.97;nan;99508.06;6073521;23;20320;-79
2022/04/03 10:06:28;;;;;;;7.80;7.03;;;;;;;10.98;nan;99509.72;6122757;23;20030;-83
2022/04/03 10:08:54;;;;;;;7.20;6.60;;;;;;;11.06;nan;99512.47;6124035;23;20014;-81
2022/04/03 10:11:21;;;;;;;8.80;6.68;;;;;;;11.21;nan;99509.31;6124216;23;20025;-78
2022/04/03 10:13:48;;;;;;;9.40;6.78;;;;;;;11.34;nan;99505.34;6098400;23;20014;-83
2022/04/03 10:16:17;;;;;;;8.07;7.38;;;;;;;11.41;nan;99513.53;6126603;23;20153;-80
2022/04/03 10:18:44;;;;;;;8.00;7.20;;;;;;;11.39;nan;99511.03;6124543;23;20010;-79
2022/04/03 10:21:40;;;;;;;7.75;6.97;;;;;;;11.37;nan;99505.03;6123480;23;20405;-79
2022/04/03 10:24:16;;;;;;;6.85;6.00;;;;;;;11.49;nan;99513.59;6130933;23;20040;-78
2022/04/03 10:26:46;;;;;;;6.88;5.78;;;;;;;11.51;nan;99511.63;6133278;23;20029;-78
2022/04/03 10:29:13;;;;;;;7.60;5.90;;;;;;;11.57;nan;99516.31;6083955;23;20014;-80
2022/04/03 10:31:53;;;;;;;6.93;6.32;;;;;;;11.73;nan;99516.50;6089440;23;20025;-78
2022/04/03 10:34:21;;;;;;;6.75;6.15;;;;;;;11.88;nan;99515.00;6114554;23;20018;-78
2022/04/03 10:36:49;;;;;;;7.20;5.72;;;;;;;11.97;nan;99510.59;6120561;23;19994;-85
2022/04/03 10:39:23;;;;;;;5.55;5.15;;;;;;;12.06;nan;99506.22;6139042;23;20017;-77
2022/04/03 10:42:10;;;;;;;6.22;5.57;;;;;;;12.14;nan;99509.75;6132622;23;20080;-81
2022/04/03 10:44:36;;;;;;;7.07;6.32;;;;;;;12.11;nan;99503.94;6127216;23;20022;-80
2022/04/03 10:47:04;;;;;;;7.97;6.65;;;;;;;12.10;nan;99503.13;6127923;23;20042;-80
2022/04/03 10:49:42;;;;;;;7.60;6.22;;;;;;;12.14;nan;99498.34;6136135;23;20046;-81
2022/04/03 10:52:33;;;;;;;6.90;6.07;;;;;;;12.25;nan;99512.16;6139542;23;20017;-82
2022/04/03 10:55:02;;;;;;;7.07;5.82;;;;;;;12.30;nan;99503.75;6120590;23;20022;-80
2022/04/03 10:57:31;;;;;;;7.05;6.45;;;;;;;12.19;nan;99507.47;6135929;23;20014;-79
2022/04/03 11:00:12;;;;;;;6.68;6.05;;;;;;;12.20;nan;99506.50;6131295;23;20013;-78
2022/04/03 11:02:38;;;;;;;;;;;;;;;12.17;nan;99501.53;6127121;23;20010;-80
2022/04/03 11:05:21;;;;;;;7.63;6.68;;;;;;;12.11;nan;99501.31;6096360;23;19913;-80
2022/04/03 11:07:51;;;;;;;7.03;6.32;;;;;;;12.15;nan;99500.00;6095862;23;20044;-80
2022/04/03 11:10:54;;;;;;;6.97;6.30;;;;;;;12.30;nan;99507.25;6122219;23;20014;-80
2022/04/03 11:13:34;;;;;;;8.07;7.38;;;;;;;12.30;nan;99509.88;6122788;23;20013;-78
2022/04/03 11:16:03;;;;;;;8.05;6.93;;;;;;;12.36;nan;99502.31;6097317;23;20395;-80
2022/04/03 11:18:30;;;;;;;7.50;6.80;;;;;;;12.46;nan;99495.94;6123488;23;20021;-79
2022/04/03 11:21:18;;;;;;;8.32;7.53;;;;;;;12.52;nan;99491.81;6121195;23;20108;-79
2022/04/03 11:24:03;;;;;;;7.25;6.55;;;;;;;12.51;nan;99496.28;6123247;23;20021;-79
2022/04/03 11:26:29;;;;;;;7.95;7.32;;;;;;;12.41;nan;99500.03;6123123;23;20288;-79
2022/04/03 11:28:55;;;;;;;7.57;6.88;;;;;;;12.41;nan;99505.31;6095551;23;20418;-79
2022/04/03 11:31:22;;;;;;;7.63;6.82;;;;;;;12.39;nan;99497.53;6120389;23;20010;-80
2022/04/03 11:33:48;;;;;;;7.43;6.80;;;;;;;12.39;nan;99497.53;6120262;23;20756;-79
2022/04/03 11:36:16;;;;;;;7.82;6.97;;;;;;;12.46;nan;99488.00;6120195;23;20032;-79
2022/04/03 11:38:46;;;;;;;8.05;7.32;;;;;;;12.39;nan;99497.53;6118333;23;20121;-80
2022/04/03 11:41:13;;;;;;;7.88;7.28;;;;;;;12.32;nan;99496.47;6122764;23;20084;-78
2022/04/03 11:43:40;;;;;;;7.45;6.75;;;;;;;12.31;nan;99494.84;6098171;23;20079;-82
2022/04/03 11:46:06;;;;;;;7.70;7.00;;;;;;;12.24;nan;99494.63;6124581;23;20002;-86
2022/04/03 11:48:34;;;;;;;8.23;7.25;;;;;;;12.24;nan;99496.44;6079523;23;20095;-87
2022/04/03 11:51:07;;;;;;;7.07;6.43;;;;;;;12.16;nan;99497.22;6125582;23;20018;-86
2022/04/03 11:53:33;;;;;;;6.72;6.13;;;;;;;12.15;nan;99494.72;6100615;23;20069;-86
2022/04/03 11:56:13;;;;;;;7.80;7.00;;;;;;;12.19;nan;99493.44;6098118;23;20089;-85
2022/04/03 11:58:54;;;;;;;8.00;6.78;;;;;;;12.22;nan;99485.19;6095766;23;20021;-86
2022/04/03 12:01:27;;;;;;;7.18;6.47;;;;;;;12.21;nan;99494.09;6124196;23;20052;-86
2022/04/03 12:04:01;;;;;;;7.07;6.38;;;;;;;12.22;nan;99490.47;6100869;23;20391;-85
2022/04/03 12:06:29;;;;;;;6.50;5.97;;;;;;;12.14;nan;99487.75;6129218;23;20010;-88
2022/04/03 12:08:55;;;;;;;6.63;6.13;;;;;;;12.10;nan;99492.53;6104095;23;20067;-88
2022/04/03 12:11:25;;;;;;;7.68;6.90;;;;;;;12.00;nan;99490.97;6101626;23;20081;-88
2022/04/03 12:13:58;;;;;;;7.47;6.78;;;;;;;11.89;nan;99495.53;6128017;23;20013;-87
2022/04/03 12:16:41;;;;;;;6.82;6.13;;;;;;;11.88;nan;99493.03;6078041;23;20056;-88
2022/04/03 12:19:15;;;;;;;7.28;6.13;;;;;;;11.94;nan;99486.28;6100399;23;20009;-87
2022/04/03 12:21:43;;;;;;;6.72;6.13;;;;;;;12.03;nan;99482.72;6126092;23;20021;-86
2022/04/03 12:24:26;;;;;;;6.20;4.85;;;;;;;12.09;nan;99490.03;6128805;23;20084;-86
2022/04/03 12:27:22;;;;;;;5.20;4.80;;;;;;;12.08;nan;99488.38;6125460;23;20045;-86
2022/04/03 12:29:51;;;;;;;3.90;3.60;;;;;;;12.13;nan;99491.41;6111102;23;20022;-89
2022/04/03 12:32:28;;;;;;;6.53;4.53;;;;;;;12.08;nan;99488.38;6077608;23;20057;-86
2022/04/03 12:34:55;;;;;;;4.82;4.43;;;;;;;12.04;nan;99487.84;6101081;23;20506;-86
2022/04/03 12:37:24;;;;;;;5.50;4.95;;;;;;;12.07;nan;99495.50;6128128;23;20069;-89
2022/04/03 12:39:49;;;;;;;5.22;4.82;;;;;;;12.13;nan;99486.13;6126633;23;20010;-86
2022/04/03 12:42:18;;;;;;;5.10;4.70;;;;;;;12.14;nan;99488.59;6123691;23;20061;-87
2022/04/03 13:22:48;;;;;;;7.63;6.20;;;;;;;12.12;nan;99479.16;6068892;23;20033;-86
2022/04/03 13:25:16;;;;;;;6.75;6.10;;;;;;;12.13;nan;99475.53;6067782;23;20011;-84
2022/04/03 13:27:42;;;;;;;7.05;6.35;;;;;;;12.10;nan;99471.38;6068024;23;20018;-84
2022/04/03 13:30:08;;;;;;;6.47;5.07;;;;;;;12.09;nan;99469.72;6065243;23;20463;-82
2022/04/03 13:32:37;;;;;;;6.65;5.82;;;;;;;12.12;nan;99469.41;6063002;23;20390;-84
2022/04/03 13:35:03;;;;;;;5.80;5.20;;;;;;;12.20;nan;99473.91;6060646;23;20010;-84
2022/04/03 13:37:30;;;;;;;9.10;7.07;;;;;;;12.23;nan;99470.97;6060480;23;20413;-85
2022/04/03 13:39:56;;;;;;;8.07;6.82;;;;;;;12.26;nan;99470.66;6060698;23;20811;-84
2022/04/03 13:42:21;;;;;;;6.30;5.70;;;;;;;12.20;nan;99469.44;6063710;23;20082;-84
2022/04/03 13:44:47;;;;;;;5.65;5.10;;;;;;;12.12;nan;99468.59;6038761;23;20022;-84
2022/04/03 13:47:12;;;;;;;7.35;6.05;;;;;;;12.06;nan;99463.91;6065028;23;20374;-88
2022/04/03 13:49:38;;;;;;;5.93;4.90;;;;;;;11.96;nan;99457.88;6041392;23;20015;-86
2022/04/03 13:52:04;;;;;;;5.70;5.00;;;;;;;11.92;nan;99456.50;6065944;23;20011;-84
2022/04/03 13:54:30;;;;;;;6.72;5.97;;;;;;;11.88;nan;99451.56;6063224;23;20166;-84
2022/04/03 13:56:57;;;;;;;6.53;5.80;;;;;;;11.89;nan;99447.94;6064204;23;20027;-86
2022/04/03 13:59:23;;;;;;;5.10;4.60;;;;;;;11.86;nan;99447.38;6039551;23;20336;-87
2022/04/03 14:01:49;;;;;;;5.30;4.75;;;;;;;11.82;nan;99446.88;6067378;23;20014;-86
2022/04/03 14:04:14;;;;;;;5.97;5.40;;;;;;;11.82;nan;99444.22;6077732;23;20101;-86
2022/04/03 14:06:40;;;;;;;13.23;10.38;;;;;;;11.77;nan;99443.88;6085008;23;20042;-86
2022/04/03 14:09:05;;;;;;;11.15;7.32;;;;;;;11.75;nan;99443.19;6088669;23;20516;-87
2022/04/03 14:11:32;;;;;;;20.42;12.30;;;;;;;11.83;nan;99447.72;6088805;23;20022;-86